createdAt,value
2019-02-28T00:00:48.924Z,6.39
2019-02-28T00:03:22.108Z,6.35
2019-02-28T00:05:54.756Z,6.30
2019-02-28T00:08:26.343Z,6.32
2019-02-28T00:10:57.969Z,6.26
2019-02-28T00:13:29.805Z,6.29
2019-02-28T00:16:03.297Z,6.24
2019-02-28T00:18:34.765Z,6.21
2019-02-28T00:21:07.105Z,6.22
2019-02-28T00:23:38.788Z,6.24
2019-02-28T00:26:11.656Z,6.22
2019-02-28T00:28:43.950Z,6.22
2019-02-28T00:31:15.539Z,6.15
2019-02-28T00:33:47.124Z,6.18
2019-02-28T00:36:19.304Z,6.18
2019-02-28T00:38:51.375Z,6.19
2019-02-28T00:41:22.966Z,6.15
2019-02-28T00:43:56.872Z,6.11
2019-02-28T00:46:28.024Z,6.11
2019-02-28T00:48:59.804Z,6.10
2019-02-28T00:51:31.386Z,6.02
2019-02-28T00:54:02.967Z,5.98
2019-02-28T00:56:34.582Z,5.91
2019-02-28T00:59:06.169Z,5.89
2019-02-28T01:01:37.761Z,5.86
2019-02-28T01:04:10.416Z,5.79
2019-02-28T01:06:42.543Z,5.78
2019-02-28T01:09:14.125Z,5.78
2019-02-28T01:11:45.778Z,5.84
2019-02-28T01:14:17.362Z,5.86
2019-02-28T01:16:50.190Z,5.84
2019-02-28T01:19:22.271Z,5.87
2019-02-28T01:21:55.427Z,5.84
2019-02-28T01:24:27.255Z,5.85
2019-02-28T01:26:59.986Z,5.81
2019-02-28T01:29:32.943Z,5.83
2019-02-28T01:32:05.131Z,5.79
2019-02-28T01:34:36.779Z,5.78
2019-02-28T01:37:08.366Z,5.78
2019-02-28T01:39:39.984Z,5.78
2019-02-28T01:42:11.575Z,5.79
2019-02-28T01:44:43.183Z,5.76
2019-02-28T01:47:14.836Z,5.78
2019-02-28T01:49:46.482Z,5.78
2019-02-28T01:52:18.086Z,5.77
2019-02-28T01:54:49.689Z,5.77
2019-02-28T01:57:21.287Z,5.74
2019-02-28T01:59:53.667Z,5.76
2019-02-28T02:02:25.280Z,5.68
2019-02-28T02:04:57.083Z,5.64
2019-02-28T02:07:30.570Z,5.67
2019-02-28T02:10:02.161Z,5.68
2019-02-28T02:12:33.936Z,5.67
2019-02-28T02:15:06.721Z,5.64
2019-02-28T02:17:38.387Z,5.53
2019-02-28T02:20:10.387Z,5.51
2019-02-28T02:22:44.475Z,5.45
2019-02-28T02:25:15.301Z,5.41
2019-02-28T02:27:46.906Z,5.38
2019-02-28T02:30:21.052Z,5.41
2019-02-28T02:32:52.717Z,5.42
2019-02-28T02:35:24.335Z,5.41
2019-02-28T02:37:56.133Z,5.39
2019-02-28T02:40:27.959Z,5.36
2019-02-28T02:42:59.846Z,5.27
2019-02-28T02:45:31.480Z,5.28
2019-02-28T02:48:05.157Z,5.24
2019-02-28T02:50:36.384Z,5.26
2019-02-28T02:53:07.985Z,5.27
2019-02-28T02:55:39.917Z,5.24
2019-02-28T02:58:11.771Z,5.24
2019-02-28T03:00:49.642Z,5.25
2019-02-28T03:03:16.656Z,5.21
2019-02-28T03:05:51.144Z,5.20
2019-02-28T03:08:22.767Z,5.16
2019-02-28T03:10:54.396Z,5.16
2019-02-28T03:13:26.971Z,5.17
2019-02-28T03:15:59.511Z,5.14
2019-02-28T03:18:33.093Z,5.16
2019-02-28T03:21:04.693Z,5.16
2019-02-28T03:23:40.163Z,5.15
2019-02-28T03:26:09.654Z,5.17
2019-02-28T03:28:41.862Z,5.18
2019-02-28T03:31:15.411Z,5.07
2019-02-28T03:33:47.217Z,5.05
2019-02-28T03:36:18.821Z,5.00
2019-02-28T03:38:50.442Z,4.97
2019-02-28T03:41:22.301Z,4.96
2019-02-28T03:43:53.983Z,4.93
2019-02-28T03:46:25.593Z,4.91
2019-02-28T03:48:57.349Z,4.82
2019-02-28T03:51:31.964Z,4.78
2019-02-28T03:54:03.563Z,4.75
2019-02-28T03:56:35.190Z,4.75
2019-02-28T03:59:06.786Z,4.79
2019-02-28T04:01:44.820Z,4.82
2019-02-28T04:04:12.526Z,4.77
2019-02-28T04:06:44.304Z,4.78
2019-02-28T04:09:15.908Z,4.67
2019-02-28T04:11:47.533Z,4.61
2019-02-28T04:14:19.127Z,4.64
2019-02-28T04:16:54.143Z,4.66
2019-02-28T04:19:24.124Z,4.65
2019-02-28T04:21:55.849Z,4.62
2019-02-28T04:24:27.456Z,4.55
2019-02-28T04:27:06.338Z,4.58
2019-02-28T04:29:32.769Z,4.56
2019-02-28T04:32:04.462Z,4.49
2019-02-28T04:34:36.115Z,4.44
2019-02-28T04:37:08.600Z,4.47
2019-02-28T04:39:42.384Z,4.45
2019-02-28T04:42:13.994Z,4.41
2019-02-28T04:44:45.661Z,4.40
2019-02-28T04:47:17.343Z,4.39
2019-02-28T04:49:48.931Z,4.37
2019-02-28T04:52:20.553Z,4.40
2019-02-28T04:54:52.172Z,4.40
2019-02-28T04:57:23.812Z,4.42
2019-02-28T04:59:55.411Z,4.44
2019-02-28T05:02:28.303Z,4.40
2019-02-28T05:05:00.296Z,4.44
2019-02-28T05:07:31.903Z,4.42
2019-02-28T05:10:03.645Z,4.39
2019-02-28T05:12:36.219Z,4.42
2019-02-28T05:15:08.575Z,4.36
2019-02-28T05:17:40.204Z,4.38
2019-02-28T05:20:12.287Z,4.38
2019-02-28T05:22:44.078Z,4.35
2019-02-28T05:25:18.670Z,4.33
2019-02-28T05:27:49.039Z,4.33
2019-02-28T05:30:20.641Z,4.37
2019-02-28T05:32:52.428Z,4.40
2019-02-28T05:35:26.694Z,4.45
2019-02-28T05:37:57.338Z,4.53
2019-02-28T05:40:28.939Z,4.52
2019-02-28T05:43:00.566Z,4.52
2019-02-28T05:45:32.184Z,4.56
2019-02-28T05:48:04.653Z,4.59
2019-02-28T05:50:36.371Z,4.63
2019-02-28T05:53:09.437Z,4.63
2019-02-28T05:55:41.255Z,4.68
2019-02-28T05:58:17.576Z,4.68
2019-02-28T06:00:46.183Z,4.64
2019-02-28T06:03:17.896Z,4.70
2019-02-28T06:05:49.483Z,4.66
2019-02-28T06:08:21.093Z,4.61
2019-02-28T06:10:56.067Z,4.64
2019-02-28T06:13:26.206Z,4.60
2019-02-28T06:15:57.828Z,4.60
2019-02-28T06:18:32.663Z,4.59
2019-02-28T06:21:02.748Z,4.60
2019-02-28T06:23:34.428Z,4.64
2019-02-28T06:26:06.151Z,4.70
2019-02-28T06:28:37.762Z,4.73
2019-02-28T06:31:09.358Z,4.75
2019-02-28T06:33:40.979Z,4.89
2019-02-28T06:36:12.647Z,4.99
2019-02-28T06:38:44.330Z,5.06
2019-02-28T06:41:15.942Z,5.14
2019-02-28T06:43:50.238Z,5.19
2019-02-28T06:46:21.043Z,5.27
2019-02-28T06:48:52.680Z,5.34
2019-02-28T06:51:24.238Z,5.38
2019-02-28T06:53:55.933Z,5.44
2019-02-28T06:56:27.617Z,5.52
2019-02-28T06:58:59.242Z,5.58
2019-02-28T07:01:30.895Z,5.61
2019-02-28T07:04:02.572Z,5.64
2019-02-28T07:06:35.976Z,5.69
2019-02-28T07:09:08.183Z,5.75
2019-02-28T07:11:39.839Z,5.79
2019-02-28T07:14:13.842Z,5.87
2019-02-28T07:16:44.740Z,5.91
2019-02-28T07:19:16.373Z,5.96
2019-02-28T07:21:47.953Z,6.01
2019-02-28T07:24:19.576Z,6.08
2019-02-28T07:26:52.297Z,6.13
2019-02-28T07:29:24.646Z,6.23
2019-02-28T07:31:59.777Z,6.29
2019-02-28T07:34:30.497Z,6.34
2019-02-28T07:37:02.086Z,6.43
2019-02-28T07:39:36.522Z,6.47
2019-02-28T07:42:07.003Z,6.58
2019-02-28T07:44:38.624Z,6.65
2019-02-28T07:47:10.226Z,6.75
2019-02-28T07:49:41.869Z,6.86
2019-02-28T07:52:13.446Z,6.96
2019-02-28T07:54:47.553Z,7.08
2019-02-28T07:57:18.375Z,7.17
2019-02-28T07:59:49.976Z,7.33
2019-02-28T08:02:21.668Z,7.42
2019-02-28T08:04:54.547Z,7.54
2019-02-28T08:07:26.716Z,7.69
2019-02-28T08:09:58.557Z,7.78
2019-02-28T08:12:30.860Z,7.90
2019-02-28T08:15:02.989Z,8.00
2019-02-28T08:17:35.397Z,8.08
2019-02-28T08:20:07.377Z,8.22
2019-02-28T08:22:39.048Z,8.33
2019-02-28T08:25:11.631Z,8.40
2019-02-28T08:27:43.308Z,8.46
2019-02-28T08:30:19.471Z,8.55
2019-02-28T08:32:49.798Z,8.68
2019-02-28T08:35:22.492Z,8.73
2019-02-28T08:37:57.132Z,8.77
2019-02-28T08:40:27.679Z,8.81
2019-02-28T08:42:59.279Z,8.89
2019-02-28T08:45:33.493Z,8.96
2019-02-28T08:48:04.313Z,8.94
2019-02-28T08:50:35.932Z,8.96
2019-02-28T08:53:07.571Z,9.07
2019-02-28T08:55:41.659Z,9.00
2019-02-28T08:58:12.461Z,9.13
2019-02-28T09:00:44.071Z,9.26
2019-02-28T09:03:15.672Z,9.27
2019-02-28T09:05:47.275Z,9.37
2019-02-28T09:08:18.940Z,9.58
2019-02-28T09:10:51.609Z,9.64
2019-02-28T09:13:24.991Z,9.67
2019-02-28T09:15:56.788Z,9.74
2019-02-28T09:18:28.576Z,9.77
2019-02-28T09:21:00.469Z,9.92
2019-02-28T09:23:34.531Z,10.15
2019-02-28T09:26:06.443Z,10.28
2019-02-28T09:28:38.132Z,10.43
2019-02-28T09:31:09.823Z,10.55
2019-02-28T09:33:41.503Z,10.68
2019-02-28T09:36:13.111Z,10.73
2019-02-28T09:38:45.252Z,10.74
2019-02-28T09:41:19.063Z,10.87
2019-02-28T09:43:50.779Z,10.82
2019-02-28T09:46:22.371Z,10.79
2019-02-28T09:48:53.994Z,11.01
2019-02-28T09:51:31.637Z,11.24
2019-02-28T09:53:58.920Z,11.35
2019-02-28T09:56:30.590Z,11.28
2019-02-28T09:59:03.244Z,11.51
2019-02-28T10:01:35.537Z,11.56
2019-02-28T10:04:07.193Z,11.61
2019-02-28T10:06:38.951Z,11.64
2019-02-28T10:09:10.577Z,11.71
2019-02-28T10:11:42.189Z,11.77
2019-02-28T10:14:13.819Z,11.92
2019-02-28T10:16:45.545Z,12.10
2019-02-28T10:19:17.195Z,12.20
2019-02-28T10:21:52.121Z,12.40
2019-02-28T10:24:22.136Z,12.24
2019-02-28T10:26:53.831Z,12.39
2019-02-28T10:29:25.527Z,12.56
2019-02-28T10:31:57.349Z,12.62
2019-02-28T10:34:29.029Z,12.65
2019-02-28T10:37:00.719Z,12.67
2019-02-28T10:39:32.409Z,12.75
2019-02-28T10:42:05.152Z,12.79
2019-02-28T10:44:38.732Z,12.81
2019-02-28T10:47:10.377Z,12.85
2019-02-28T10:49:42.053Z,13.04
2019-02-28T10:52:13.753Z,13.16
2019-02-28T10:54:48.431Z,13.37
2019-02-28T10:57:18.709Z,13.30
2019-02-28T10:59:50.639Z,13.11
2019-02-28T11:02:22.285Z,13.22
2019-02-28T11:04:54.045Z,13.02
2019-02-28T11:07:25.681Z,12.92
2019-02-28T11:09:58.802Z,12.93
2019-02-28T11:12:30.765Z,12.74
2019-02-28T11:15:02.446Z,12.81
2019-02-28T11:17:34.326Z,12.78
2019-02-28T11:20:06.744Z,12.77
2019-02-28T11:22:39.880Z,12.76
2019-02-28T11:25:12.934Z,12.66
2019-02-28T11:27:44.657Z,12.58
2019-02-28T11:30:17.403Z,12.69
2019-02-28T11:32:49.128Z,12.70
2019-02-28T11:35:23.226Z,12.64
2019-02-28T11:37:54.147Z,12.50
2019-02-28T11:40:26.838Z,12.53
2019-02-28T11:42:59.496Z,12.33
2019-02-28T11:45:32.601Z,12.33
2019-02-28T11:48:05.228Z,12.26
2019-02-28T11:50:41.337Z,12.08
2019-02-28T11:53:10.291Z,12.20
2019-02-28T11:55:42.284Z,12.24
2019-02-28T11:58:17.701Z,12.32
2019-02-28T12:00:47.325Z,12.29
2019-02-28T12:03:19.021Z,12.28
2019-02-28T12:05:51.349Z,12.33
2019-02-28T12:08:23.154Z,12.31
2019-02-28T12:10:54.840Z,12.38
2019-02-28T12:13:26.696Z,12.52
2019-02-28T12:15:58.517Z,12.59
2019-02-28T12:18:30.389Z,12.73
2019-02-28T12:21:04.201Z,12.78
2019-02-28T12:23:35.337Z,12.77
2019-02-28T12:26:07.155Z,12.55
2019-02-28T12:28:39.164Z,12.67
2019-02-28T12:31:10.868Z,12.64
2019-02-28T12:33:42.484Z,12.61
2019-02-28T12:36:14.517Z,12.65
2019-02-28T12:38:46.958Z,12.62
2019-02-28T12:41:21.725Z,12.64
2019-02-28T12:43:51.969Z,12.63
2019-02-28T12:46:23.746Z,12.63
2019-02-28T12:48:55.418Z,12.69
2019-02-28T12:51:28.327Z,12.72
2019-02-28T12:54:00.147Z,12.51
2019-02-28T12:56:31.992Z,12.54
2019-02-28T12:59:03.961Z,12.51
2019-02-28T13:01:35.580Z,12.56
2019-02-28T13:04:07.323Z,12.67
2019-02-28T13:06:39.904Z,12.69
2019-02-28T13:09:16.893Z,12.80
2019-02-28T13:11:47.721Z,12.79
2019-02-28T13:14:19.427Z,12.79
2019-02-28T13:16:51.045Z,12.69
2019-02-28T13:19:22.695Z,12.74
2019-02-28T13:21:54.295Z,12.74
2019-02-28T13:24:26.010Z,12.62
2019-02-28T13:26:57.817Z,12.57
2019-02-28T13:29:32.411Z,12.51
2019-02-28T13:32:02.817Z,12.38
2019-02-28T13:34:34.432Z,12.49
2019-02-28T13:37:06.121Z,12.51
2019-02-28T13:39:37.764Z,12.61
2019-02-28T13:42:09.552Z,12.69
2019-02-28T13:44:41.195Z,12.66
2019-02-28T13:47:12.805Z,12.51
2019-02-28T13:49:46.624Z,12.51
2019-02-28T13:52:20.300Z,12.61
2019-02-28T13:54:51.165Z,12.52
2019-02-28T13:57:22.855Z,12.48
2019-02-28T13:59:54.549Z,12.53
2019-02-28T14:02:29.443Z,12.67
2019-02-28T14:05:03.058Z,12.65
2019-02-28T14:07:33.765Z,12.65
2019-02-28T14:10:07.300Z,12.55
2019-02-28T14:12:38.999Z,12.49
2019-02-28T14:15:15.490Z,12.47
2019-02-28T14:17:45.490Z,12.47
2019-02-28T14:20:17.192Z,12.51
2019-02-28T14:22:48.886Z,12.49
2019-02-28T14:25:20.866Z,12.34
2019-02-28T14:27:52.528Z,12.22
2019-02-28T14:30:24.977Z,12.21
2019-02-28T14:32:56.649Z,12.13
2019-02-28T14:35:33.849Z,12.07
2019-02-28T14:38:02.071Z,12.01
2019-02-28T14:40:33.929Z,11.94
2019-02-28T14:43:05.656Z,11.95
2019-02-28T14:45:39.280Z,11.99
2019-02-28T14:48:10.964Z,11.94
2019-02-28T14:50:42.617Z,11.92
2019-02-28T14:53:14.671Z,11.87
2019-02-28T14:55:46.406Z,11.93
2019-02-28T14:58:21.166Z,11.90
2019-02-28T15:00:51.423Z,11.89
2019-02-28T15:03:23.032Z,11.94
2019-02-28T15:05:55.548Z,11.97
2019-02-28T15:08:28.031Z,11.82
2019-02-28T15:10:59.660Z,11.76
2019-02-28T15:13:33.442Z,11.77
2019-02-28T15:16:04.742Z,11.61
2019-02-28T15:18:37.882Z,11.60
2019-02-28T15:21:09.532Z,11.55
2019-02-28T15:23:41.219Z,11.42
2019-02-28T15:26:12.913Z,11.29
2019-02-28T15:28:45.537Z,11.14
2019-02-28T15:31:17.897Z,11.03
2019-02-28T15:33:49.513Z,10.97
2019-02-28T15:36:24.286Z,10.89
2019-02-28T15:38:54.585Z,10.88
2019-02-28T15:41:26.206Z,10.84
2019-02-28T15:43:58.159Z,10.83
2019-02-28T15:46:30.042Z,10.78
2019-02-28T15:49:01.642Z,10.70
2019-02-28T15:51:33.236Z,10.64
2019-02-28T15:54:04.918Z,10.51
2019-02-28T15:56:36.851Z,10.40
2019-02-28T15:59:14.733Z,10.26
2019-02-28T16:01:45.285Z,10.13
2019-02-28T16:04:16.887Z,10.05
2019-02-28T16:06:48.510Z,9.96
2019-02-28T16:09:21.460Z,9.88
2019-02-28T16:11:53.867Z,9.83
2019-02-28T16:14:25.771Z,9.82
2019-02-28T16:17:00.309Z,9.73
2019-02-28T16:19:31.026Z,9.66
2019-02-28T16:22:02.657Z,9.41
2019-02-28T16:24:36.692Z,9.32
2019-02-28T16:27:07.825Z,9.26
2019-02-28T16:29:40.508Z,9.08
2019-02-28T16:32:14.156Z,9.04
2019-02-28T16:34:45.518Z,8.94
2019-02-28T16:37:17.143Z,8.86
2019-02-28T16:39:49.821Z,8.75
2019-02-28T16:42:21.639Z,8.74
2019-02-28T16:44:53.247Z,8.71
2019-02-28T16:47:25.182Z,8.61
2019-02-28T16:49:57.258Z,8.46
2019-02-28T16:52:29.116Z,8.52
2019-02-28T16:55:01.050Z,8.32
2019-02-28T16:57:32.737Z,8.32
2019-02-28T17:00:07.571Z,8.20
2019-02-28T17:02:37.787Z,8.05
2019-02-28T17:05:09.483Z,7.99
2019-02-28T17:07:43.589Z,7.91
2019-02-28T17:10:15.603Z,7.94
2019-02-28T17:13:12.072Z,7.74
2019-02-28T17:15:55.802Z,7.60
2019-02-28T17:18:26.248Z,7.55
2019-02-28T17:20:58.258Z,7.35
2019-02-28T17:23:30.194Z,7.23
2019-02-28T17:26:01.963Z,7.17
2019-02-28T17:29:01.847Z,7.13
2019-02-28T17:31:48.096Z,7.02
2019-02-28T17:34:23.695Z,7.01
2019-02-28T17:36:53.684Z,6.99
2019-02-28T17:39:25.282Z,6.89
2019-02-28T17:41:57.275Z,6.81
2019-02-28T17:44:57.909Z,6.77
2019-02-28T17:48:18.614Z,6.69
2019-02-28T17:50:57.349Z,6.57
2019-02-28T17:54:17.230Z,6.52
2019-02-28T17:57:29.018Z,6.48
2019-02-28T18:00:41.089Z,6.39
2019-02-28T18:04:01.984Z,6.32
2019-02-28T18:07:26.764Z,6.28
2019-02-28T18:10:41.391Z,6.41
2019-02-28T18:13:22.386Z,6.47
2019-02-28T18:16:26.585Z,6.56
2019-02-28T18:19:47.863Z,6.69
2019-02-28T18:22:56.781Z,6.81
2019-02-28T18:25:53.397Z,6.68
2019-02-28T18:29:05.431Z,6.58
2019-02-28T18:31:37.115Z,6.48
2019-02-28T18:34:16.990Z,6.44
2019-02-28T18:36:48.664Z,6.35
2019-02-28T18:39:21.350Z,6.28
2019-02-28T18:41:53.048Z,6.26
2019-02-28T18:44:24.733Z,6.27
2019-02-28T18:46:56.428Z,6.28
2019-02-28T18:49:29.375Z,6.35
2019-02-28T18:52:01.978Z,6.36
2019-02-28T18:54:34.675Z,6.36
2019-02-28T18:57:06.344Z,6.38
2019-02-28T18:59:38.071Z,6.41
2019-02-28T19:02:09.058Z,6.38
2019-02-28T19:04:40.653Z,6.38
2019-02-28T19:07:12.280Z,6.30
2019-02-28T19:09:43.961Z,6.34
2019-02-28T19:12:15.618Z,6.35
2019-02-28T19:14:47.316Z,6.28
2019-02-28T19:17:19.407Z,6.25
2019-02-28T19:19:52.089Z,6.17
2019-02-28T19:22:23.817Z,6.21
2019-02-28T19:24:55.700Z,6.19
2019-02-28T19:27:27.428Z,6.13
2019-02-28T19:29:59.113Z,6.06
2019-02-28T19:32:31.182Z,6.02
2019-02-28T19:35:04.026Z,5.91
2019-02-28T19:37:37.719Z,5.91
2019-02-28T19:40:12.549Z,5.96
2019-02-28T19:42:45.081Z,5.87
2019-02-28T19:45:17.481Z,5.83
2019-02-28T19:47:49.560Z,5.81
2019-02-28T19:50:22.352Z,5.82
2019-02-28T19:52:54.293Z,5.73
2019-02-28T19:55:26.374Z,5.63
2019-02-28T19:57:58.463Z,5.60
2019-02-28T20:00:30.438Z,5.41
2019-02-28T20:03:02.274Z,5.37
2019-02-28T20:05:34.448Z,5.43
2019-02-28T20:08:06.153Z,5.49
2019-02-28T20:10:37.844Z,5.49
2019-02-28T20:13:10.572Z,5.36
2019-02-28T20:15:42.432Z,5.29
2019-02-28T20:18:14.282Z,5.26
2019-02-28T20:20:46.038Z,5.30
2019-02-28T20:23:17.802Z,5.17
2019-02-28T20:25:49.517Z,5.03
2019-02-28T20:28:21.488Z,5.01
2019-02-28T20:30:53.227Z,4.89
2019-02-28T20:33:25.078Z,4.84
2019-02-28T20:35:56.853Z,4.88
2019-02-28T20:38:28.658Z,4.90
2019-02-28T20:41:00.442Z,4.88
2019-02-28T20:43:33.194Z,4.88
2019-02-28T20:46:04.901Z,4.73
2019-02-28T20:48:36.590Z,4.69
2019-02-28T20:51:08.362Z,4.56
2019-02-28T20:53:40.441Z,4.44
2019-02-28T20:56:12.147Z,4.30
2019-02-28T20:58:43.859Z,4.28
2019-02-28T21:01:15.577Z,4.30
2019-02-28T21:03:47.360Z,4.35
2019-02-28T21:06:19.058Z,4.43
2019-02-28T21:08:50.738Z,4.45
2019-02-28T21:11:22.452Z,4.49
2019-02-28T21:13:54.134Z,4.54
2019-02-28T21:16:25.919Z,4.57
2019-02-28T21:18:58.270Z,4.54
2019-02-28T21:21:30.523Z,4.52
2019-02-28T21:24:02.318Z,4.53
2019-02-28T21:26:34.226Z,4.38
2019-02-28T21:29:05.829Z,4.47
2019-02-28T21:31:37.503Z,4.54
2019-02-28T21:34:09.240Z,4.56
2019-02-28T21:36:40.977Z,4.49
2019-02-28T21:39:12.675Z,4.39
2019-02-28T21:41:45.898Z,4.34
2019-02-28T21:44:17.681Z,4.38
2019-02-28T21:46:49.360Z,4.36
2019-02-28T21:49:21.045Z,4.38
2019-02-28T21:51:52.762Z,4.27
2019-02-28T21:54:24.458Z,4.23
2019-02-28T21:56:56.152Z,4.21
2019-02-28T21:59:28.107Z,4.17
2019-02-28T22:01:59.797Z,4.17
2019-02-28T22:04:31.671Z,4.21
2019-02-28T22:07:03.367Z,4.18
2019-02-28T22:09:35.943Z,4.13
2019-02-28T22:12:07.640Z,4.18
2019-02-28T22:14:39.270Z,4.17
2019-02-28T22:17:10.975Z,4.12
2019-02-28T22:19:42.583Z,3.99
2019-02-28T22:22:14.219Z,4.07
2019-02-28T22:24:45.834Z,4.08
2019-02-28T22:27:17.530Z,4.03
2019-02-28T22:29:49.141Z,4.02
2019-02-28T22:32:39.661Z,4.06
2019-02-28T22:35:20.122Z,4.06
2019-02-28T22:37:51.807Z,4.10
2019-02-28T22:40:23.478Z,4.11
2019-02-28T22:42:55.108Z,4.12
2019-02-28T22:45:26.715Z,4.14
2019-02-28T22:47:59.371Z,4.19
2019-02-28T22:50:31.259Z,4.00
2019-02-28T22:53:02.871Z,4.00
2019-02-28T22:55:34.485Z,3.91
2019-02-28T22:58:09.377Z,3.99
2019-02-28T23:01:04.053Z,3.95
2019-02-28T23:03:36.032Z,3.95
2019-02-28T23:06:07.901Z,3.96
2019-02-28T23:08:39.506Z,4.08
2019-02-28T23:11:11.119Z,4.15
2019-02-28T23:13:42.796Z,4.27
2019-02-28T23:16:14.404Z,4.23
2019-02-28T23:18:46.001Z,4.24
2019-02-28T23:21:17.613Z,4.32
2019-02-28T23:23:49.209Z,4.31
2019-02-28T23:26:26.838Z,4.24
2019-02-28T23:29:08.808Z,4.28
2019-02-28T23:32:24.025Z,4.36
2019-02-28T23:34:56.648Z,4.33
2019-02-28T23:37:28.383Z,4.34
2019-02-28T23:39:59.988Z,4.36
2019-02-28T23:42:31.589Z,4.40
2019-02-28T23:45:03.256Z,4.42
2019-02-28T23:47:35.927Z,4.53
2019-02-28T23:50:08.409Z,4.54
2019-02-28T23:52:40.038Z,4.60
2019-02-28T23:55:11.674Z,4.58
2019-02-28T23:57:43.277Z,4.62
